createdAt,value
2018-12-22T00:00:45.884Z,0.77
2018-12-22T00:03:13.526Z,0.70
2018-12-22T00:05:40.990Z,0.60
2018-12-22T00:08:08.536Z,0.70
2018-12-22T00:10:36.049Z,0.60
2018-12-22T00:13:03.729Z,0.60
2018-12-22T00:15:31.274Z,0.87
2018-12-22T00:17:58.726Z,0.60
2018-12-22T00:20:26.132Z,0.80
2018-12-22T00:22:53.652Z,0.77
2018-12-22T00:25:21.178Z,0.60
2018-12-22T00:27:48.680Z,0.70
2018-12-22T00:30:16.139Z,0.70
2018-12-22T00:32:43.642Z,0.63
2018-12-22T00:35:11.199Z,0.93
2018-12-22T00:37:38.631Z,0.60
2018-12-22T00:40:06.289Z,0.90
2018-12-22T00:42:33.785Z,0.90
2018-12-22T00:45:01.304Z,0.70
2018-12-22T00:47:28.816Z,0.60
2018-12-22T00:49:56.384Z,0.70
2018-12-22T00:52:23.828Z,0.57
2018-12-22T00:54:51.430Z,0.70
2018-12-22T00:57:18.971Z,0.67
2018-12-22T00:59:46.443Z,0.80
2018-12-22T01:02:13.975Z,0.73
2018-12-22T01:04:41.409Z,0.60
2018-12-22T01:07:08.873Z,0.80
2018-12-22T01:09:36.334Z,0.70
2018-12-22T01:12:03.874Z,0.80
2018-12-22T01:14:31.404Z,0.60
2018-12-22T01:16:58.888Z,0.90
2018-12-22T01:19:26.360Z,0.90
2018-12-22T01:21:53.835Z,0.70
2018-12-22T01:24:21.406Z,0.80
2018-12-22T01:26:48.886Z,0.63
2018-12-22T01:29:16.422Z,0.70
2018-12-22T01:31:43.918Z,0.73
2018-12-22T01:34:11.430Z,0.50
2018-12-22T01:36:38.920Z,0.60
2018-12-22T01:39:06.334Z,0.80
2018-12-22T01:41:34.035Z,0.73
2018-12-22T01:44:01.618Z,0.80
2018-12-22T01:46:29.014Z,0.70
2018-12-22T01:48:56.500Z,0.73
2018-12-22T01:51:24.195Z,0.60
2018-12-22T01:53:51.654Z,0.70
2018-12-22T01:56:19.103Z,0.80
2018-12-22T01:58:47.901Z,0.70
2018-12-22T02:01:15.862Z,0.83
2018-12-22T02:03:43.310Z,0.73
2018-12-22T02:06:10.763Z,0.63
2018-12-22T02:08:38.280Z,0.60
2018-12-22T02:11:05.741Z,0.70
2018-12-22T02:13:33.280Z,0.63
2018-12-22T02:16:00.703Z,0.73
2018-12-22T02:18:28.101Z,0.77
2018-12-22T02:20:55.651Z,0.60
2018-12-22T02:23:23.239Z,0.60
2018-12-22T02:25:50.963Z,0.47
2018-12-22T02:28:18.476Z,0.70
2018-12-22T02:30:45.917Z,0.40
2018-12-22T02:33:13.420Z,0.40
2018-12-22T02:35:41.060Z,0.50
2018-12-22T02:38:08.434Z,0.40
2018-12-22T02:40:36.054Z,0.57
2018-12-22T02:43:03.571Z,0.57
2018-12-22T02:45:31.104Z,0.50
2018-12-22T02:47:58.481Z,0.50
2018-12-22T02:50:26.002Z,0.40
2018-12-22T02:52:53.474Z,0.70
2018-12-22T02:55:20.950Z,0.40
2018-12-22T02:57:48.389Z,0.53
2018-12-22T03:00:15.916Z,0.60
2018-12-22T03:02:43.431Z,0.50
2018-12-22T03:05:11.171Z,0.50
2018-12-22T03:07:38.689Z,0.40
2018-12-22T03:10:06.333Z,0.43
2018-12-22T03:12:33.862Z,0.40
2018-12-22T03:15:01.434Z,0.80
2018-12-22T03:17:28.941Z,0.50
2018-12-22T03:19:56.394Z,0.50
2018-12-22T03:22:23.980Z,0.70
2018-12-22T03:24:51.452Z,0.53
2018-12-22T03:27:19.908Z,0.70
2018-12-22T03:29:47.351Z,0.50
2018-12-22T03:32:14.926Z,0.60
2018-12-22T03:34:42.404Z,0.60
2018-12-22T03:37:09.931Z,0.63
2018-12-22T03:39:37.383Z,0.60
2018-12-22T03:42:04.976Z,0.83
2018-12-22T03:44:32.409Z,0.60
2018-12-22T03:46:59.943Z,0.57
2018-12-22T03:49:27.482Z,0.40
2018-12-22T03:51:54.956Z,0.40
2018-12-22T03:54:22.434Z,0.50
2018-12-22T03:56:49.845Z,0.50
2018-12-22T03:59:24.734Z,0.40
2018-12-22T04:01:46.906Z,0.47
2018-12-22T04:04:14.363Z,0.50
2018-12-22T04:06:41.922Z,0.50
2018-12-22T04:09:09.500Z,0.90
2018-12-22T04:11:36.936Z,0.50
2018-12-22T04:14:04.491Z,0.77
2018-12-22T04:16:32.048Z,0.63
2018-12-22T04:18:59.561Z,0.50
2018-12-22T04:21:27.044Z,0.63
2018-12-22T04:23:54.582Z,0.50
2018-12-22T04:26:22.151Z,0.50
2018-12-22T04:28:49.604Z,0.63
2018-12-22T04:31:17.064Z,0.53
2018-12-22T04:33:44.464Z,0.50
2018-12-22T04:36:11.988Z,0.63
2018-12-22T04:38:39.465Z,0.63
2018-12-22T04:41:06.982Z,1.00
2018-12-22T04:43:34.562Z,0.80
2018-12-22T04:46:02.054Z,0.60
2018-12-22T04:48:29.575Z,0.40
2018-12-22T04:50:57.168Z,0.70
2018-12-22T04:53:24.695Z,0.80
2018-12-22T04:55:52.187Z,0.60
2018-12-22T04:58:19.871Z,0.53
2018-12-22T05:00:47.326Z,0.80
2018-12-22T05:03:14.820Z,0.70
2018-12-22T05:05:42.266Z,0.90
2018-12-22T05:08:10.859Z,0.67
2018-12-22T05:10:38.384Z,0.57
2018-12-22T05:13:05.889Z,0.60
2018-12-22T05:15:33.399Z,0.93
2018-12-22T05:18:00.919Z,0.60
2018-12-22T05:20:28.501Z,0.90
2018-12-22T05:22:55.975Z,0.60
2018-12-22T05:25:23.676Z,0.50
2018-12-22T05:27:51.083Z,0.77
2018-12-22T05:30:18.579Z,1.10
2018-12-22T05:32:53.023Z,0.77
2018-12-22T05:35:20.558Z,0.93
2018-12-22T05:37:48.013Z,0.60
2018-12-22T05:40:15.575Z,0.67
2018-12-22T05:42:43.022Z,1.00
2018-12-22T05:45:10.487Z,0.80
2018-12-22T05:47:38.120Z,1.00
2018-12-22T05:50:05.948Z,0.80
2018-12-22T05:52:33.488Z,0.80
2018-12-22T05:55:00.986Z,1.03
2018-12-22T05:57:28.510Z,1.10
2018-12-22T06:00:00.390Z,0.80
2018-12-22T06:02:25.546Z,0.93
2018-12-22T06:04:53.119Z,0.77
2018-12-22T06:07:20.522Z,0.90
2018-12-22T06:09:48.182Z,1.00
2018-12-22T06:12:15.691Z,0.70
2018-12-22T06:14:43.220Z,0.67
2018-12-22T06:17:10.763Z,1.03
2018-12-22T06:19:38.273Z,0.80
2018-12-22T06:22:05.781Z,0.80
2018-12-22T06:24:33.244Z,0.60
2018-12-22T06:27:00.780Z,0.80
2018-12-22T06:29:28.254Z,0.93
2018-12-22T06:31:55.693Z,0.70
2018-12-22T06:34:23.225Z,1.13
2018-12-22T06:36:50.679Z,0.60
2018-12-22T06:39:18.372Z,0.83
2018-12-22T06:41:45.773Z,0.67
2018-12-22T06:44:13.238Z,0.67
2018-12-22T06:46:40.747Z,0.90
2018-12-22T06:49:08.337Z,0.80
2018-12-22T06:51:35.758Z,0.77
2018-12-22T06:54:03.367Z,0.80
2018-12-22T06:56:30.809Z,1.43
2018-12-22T06:58:58.320Z,0.90
2018-12-22T07:01:25.742Z,0.63
2018-12-22T07:03:53.245Z,1.20
2018-12-22T07:06:20.700Z,0.70
2018-12-22T07:08:48.174Z,0.80
2018-12-22T07:11:15.581Z,0.70
2018-12-22T07:13:43.252Z,0.80
2018-12-22T07:16:10.670Z,1.03
2018-12-22T07:18:38.045Z,1.23
2018-12-22T07:21:05.581Z,1.40
2018-12-22T07:23:33.073Z,1.10
2018-12-22T07:26:00.482Z,0.97
2018-12-22T07:28:27.938Z,1.07
2018-12-22T07:30:55.425Z,1.30
2018-12-22T07:33:22.914Z,1.00
2018-12-22T07:35:50.381Z,0.70
2018-12-22T07:38:17.873Z,1.40
2018-12-22T07:40:45.466Z,1.40
2018-12-22T07:43:12.879Z,0.97
2018-12-22T07:45:40.383Z,1.30
2018-12-22T07:48:07.778Z,1.00
2018-12-22T07:50:35.271Z,1.43
2018-12-22T07:53:02.690Z,1.03
2018-12-22T07:55:30.144Z,1.73
2018-12-22T07:57:59.430Z,1.30
2018-12-22T08:00:34.624Z,2.00
2018-12-22T08:02:56.812Z,1.27
2018-12-22T08:05:24.358Z,1.10
2018-12-22T08:07:51.873Z,1.60
2018-12-22T08:10:19.296Z,1.10
2018-12-22T08:12:46.920Z,0.90
2018-12-22T08:15:14.452Z,1.10
2018-12-22T08:17:41.950Z,0.97
2018-12-22T08:20:09.541Z,1.00
2018-12-22T08:22:37.106Z,1.30
2018-12-22T08:25:05.102Z,1.30
2018-12-22T08:27:32.590Z,1.27
2018-12-22T08:30:00.094Z,1.37
2018-12-22T08:32:27.702Z,1.00
2018-12-22T08:34:56.303Z,1.17
2018-12-22T08:37:23.777Z,1.20
2018-12-22T08:39:51.281Z,1.50
2018-12-22T08:42:18.777Z,1.40
2018-12-22T08:44:46.242Z,1.30
2018-12-22T08:47:13.744Z,1.53
2018-12-22T08:49:41.264Z,1.90
2018-12-22T08:52:08.726Z,1.20
2018-12-22T08:54:36.275Z,1.40
2018-12-22T08:57:03.935Z,1.67
2018-12-22T08:59:31.450Z,1.47
2018-12-22T09:01:58.952Z,1.90
2018-12-22T09:04:26.541Z,1.90
2018-12-22T09:06:54.047Z,1.83
2018-12-22T09:09:22.200Z,1.60
2018-12-22T09:11:49.695Z,1.40
2018-12-22T09:14:17.339Z,2.13
2018-12-22T09:16:44.755Z,1.90
2018-12-22T09:19:12.294Z,1.40
2018-12-22T09:21:39.848Z,1.93
2018-12-22T09:24:07.395Z,1.60
2018-12-22T09:26:35.035Z,1.70
2018-12-22T09:29:02.557Z,1.70
2018-12-22T09:31:30.026Z,1.30
2018-12-22T09:33:57.572Z,2.27
2018-12-22T09:36:25.195Z,1.40
2018-12-22T09:38:52.643Z,2.57
2018-12-22T09:41:20.103Z,1.20
2018-12-22T09:43:47.589Z,1.70
2018-12-22T09:46:15.035Z,1.80
2018-12-22T09:48:42.548Z,2.10
2018-12-22T09:51:09.972Z,1.93
2018-12-22T09:53:37.474Z,1.57
2018-12-22T09:56:05.025Z,1.80
2018-12-22T09:58:32.716Z,2.50
2018-12-22T10:01:09.104Z,1.50
2018-12-22T10:03:30.211Z,1.50
2018-12-22T10:05:57.730Z,1.60
2018-12-22T10:08:25.253Z,1.73
2018-12-22T10:10:52.900Z,1.73
2018-12-22T10:13:20.596Z,2.17
2018-12-22T10:15:48.010Z,1.40
2018-12-22T10:18:15.750Z,1.10
2018-12-22T10:27:40.189Z,1.57
2018-12-22T10:30:11.497Z,1.50
2018-12-22T10:32:38.963Z,1.47
2018-12-22T10:35:10.009Z,1.27
2018-12-22T10:37:37.560Z,1.83
2018-12-22T10:40:05.578Z,1.57
2018-12-22T10:42:33.252Z,1.40
2018-12-22T10:45:00.770Z,2.33
2018-12-22T10:47:28.350Z,2.00
2018-12-22T10:49:55.882Z,2.97
2018-12-22T10:52:23.374Z,2.33
2018-12-22T10:54:50.926Z,2.03
2018-12-22T10:57:18.532Z,1.70
2018-12-22T10:59:46.048Z,2.27
2018-12-22T11:02:13.461Z,2.00
2018-12-22T11:04:40.830Z,1.37
2018-12-22T11:07:08.274Z,1.70
2018-12-22T11:09:35.813Z,1.67
2018-12-22T11:12:03.267Z,1.93
2018-12-22T11:14:30.834Z,1.50
2018-12-22T11:16:58.315Z,1.47
2018-12-22T11:19:25.814Z,1.90
2018-12-22T11:21:53.333Z,1.50
2018-12-22T11:24:20.968Z,1.63
2018-12-22T11:26:48.383Z,1.30
2018-12-22T11:29:15.938Z,1.43
2018-12-22T11:31:43.464Z,1.70
2018-12-22T11:34:10.973Z,1.77
2018-12-22T11:36:38.510Z,1.63
2018-12-22T11:39:07.050Z,2.37
2018-12-22T11:41:34.983Z,1.70
2018-12-22T11:44:02.797Z,2.93
2018-12-22T11:46:31.659Z,2.17
2018-12-22T11:49:05.653Z,1.53
2018-12-22T11:51:33.396Z,1.50
2018-12-22T11:54:00.914Z,1.73
2018-12-22T11:56:28.464Z,1.90
2018-12-22T11:58:56.034Z,1.20
2018-12-22T12:01:23.432Z,1.50
2018-12-22T12:03:50.913Z,1.73
2018-12-22T12:06:18.774Z,1.40
2018-12-22T12:08:46.288Z,1.70
2018-12-22T12:11:13.854Z,1.83
2018-12-22T12:13:41.486Z,2.40
2018-12-22T12:16:50.622Z,1.50
2018-12-22T12:19:21.675Z,1.40
2018-12-22T12:21:49.202Z,2.10
2018-12-22T12:24:16.848Z,1.37
2018-12-22T12:26:44.370Z,2.00
2018-12-22T12:29:12.044Z,2.00
2018-12-22T12:31:39.706Z,1.70
2018-12-22T12:34:07.248Z,2.37
2018-12-22T12:36:34.724Z,2.40
2018-12-22T12:39:02.869Z,2.33
2018-12-22T12:41:31.409Z,1.80
2018-12-22T12:43:59.050Z,1.73
2018-12-22T12:46:38.268Z,1.80
2018-12-22T12:49:05.739Z,2.37
2018-12-22T12:51:34.060Z,1.20
2018-12-22T12:54:01.575Z,1.63
2018-12-22T12:56:29.518Z,1.60
2018-12-22T12:58:57.014Z,2.13
2018-12-22T13:01:24.637Z,1.60
2018-12-22T13:03:52.083Z,1.93
2018-12-22T13:06:19.522Z,1.70
2018-12-22T13:08:46.956Z,1.70
2018-12-22T13:11:14.516Z,1.70
2018-12-22T13:13:46.504Z,1.67
2018-12-22T13:16:14.071Z,1.90
2018-12-22T13:18:41.639Z,2.27
2018-12-22T13:21:09.720Z,1.80
2018-12-22T13:23:37.225Z,2.60
2018-12-22T13:26:04.800Z,2.07
2018-12-22T13:28:32.320Z,1.83
2018-12-22T13:30:59.879Z,1.80
2018-12-22T13:33:27.524Z,2.10
2018-12-22T13:35:55.020Z,1.47
2018-12-22T13:38:22.889Z,2.17
2018-12-22T13:40:50.266Z,2.20
2018-12-22T13:43:17.925Z,2.17
2018-12-22T13:45:45.414Z,2.07
2018-12-22T13:48:20.286Z,1.90
2018-12-22T13:50:48.045Z,1.47
2018-12-22T13:53:15.875Z,1.90
2018-12-22T13:55:43.448Z,1.30
2018-12-22T13:58:11.001Z,1.90
2018-12-22T14:00:41.730Z,2.20
2018-12-22T14:03:11.843Z,1.13
2018-12-22T14:05:39.423Z,1.37
2018-12-22T14:08:07.042Z,1.13
2018-12-22T14:10:34.539Z,1.03
2018-12-22T14:13:02.134Z,1.30
2018-12-22T14:15:29.917Z,1.20
2018-12-22T14:19:21.213Z,1.37
2018-12-22T14:21:49.392Z,1.40
2018-12-22T14:24:43.648Z,1.70
2018-12-22T14:27:11.139Z,1.70
2018-12-22T14:29:38.837Z,1.00
2018-12-22T14:32:06.345Z,1.50
2018-12-22T14:34:38.961Z,1.97
2018-12-22T14:37:06.454Z,1.60
2018-12-22T14:39:33.948Z,1.53
2018-12-22T14:42:01.353Z,1.93
2018-12-22T14:44:28.993Z,2.10
2018-12-22T14:46:56.435Z,3.40
2018-12-22T14:49:23.859Z,2.50
2018-12-22T14:51:52.421Z,2.27
2018-12-22T14:54:19.871Z,2.27
2018-12-22T14:56:47.310Z,2.17
2018-12-22T14:59:18.185Z,2.60
2018-12-22T15:01:49.739Z,2.60
2018-12-22T15:04:17.281Z,2.23
2018-12-22T15:06:44.819Z,5.00
2018-12-22T15:09:13.348Z,4.60
2018-12-22T15:11:41.203Z,3.73
2018-12-22T15:14:08.779Z,2.80
2018-12-22T15:16:36.224Z,2.63
2018-12-22T15:19:03.872Z,2.60
2018-12-22T15:21:31.347Z,2.10
2018-12-22T15:23:59.029Z,2.17
2018-12-22T15:26:26.564Z,2.70
2018-12-22T15:28:54.139Z,2.20
2018-12-22T15:31:21.675Z,2.73
2018-12-22T15:33:49.314Z,2.57
2018-12-22T15:36:17.001Z,3.17
2018-12-22T15:38:44.505Z,3.63
2018-12-22T15:41:12.042Z,3.40
2018-12-22T15:43:39.685Z,2.60
2018-12-22T15:46:07.173Z,2.60
2018-12-22T15:48:44.275Z,3.07
2018-12-22T15:51:13.579Z,3.63
2018-12-22T15:53:41.178Z,3.77
2018-12-22T15:56:08.592Z,3.53
2018-12-22T15:58:36.238Z,6.53
2018-12-22T16:01:03.845Z,5.83
2018-12-22T16:03:31.458Z,7.57
2018-12-22T16:05:58.925Z,5.33
2018-12-22T16:08:26.460Z,4.70
2018-12-22T16:10:53.926Z,3.80
2018-12-22T16:13:21.436Z,4.90
2018-12-22T16:15:49.118Z,4.47
2018-12-22T16:18:16.811Z,4.47
2018-12-22T16:20:44.258Z,3.53
2018-12-22T16:23:11.919Z,4.50
2018-12-22T16:25:39.426Z,3.80
2018-12-22T16:28:10.635Z,4.67
2018-12-22T16:30:43.556Z,3.97
2018-12-22T16:33:11.014Z,4.23
2018-12-22T16:35:38.714Z,4.57
2018-12-22T16:38:06.579Z,3.90
2018-12-22T16:40:34.216Z,3.63
2018-12-22T16:43:02.836Z,3.33
2018-12-22T16:45:30.375Z,4.40
2018-12-22T16:47:57.880Z,3.73
2018-12-22T16:50:26.173Z,2.70
2018-12-22T16:52:53.755Z,4.47
2018-12-22T16:55:21.363Z,3.80
2018-12-22T16:57:59.973Z,3.47
2018-12-22T17:00:29.504Z,3.17
2018-12-22T17:03:00.270Z,3.17
2018-12-22T17:05:27.834Z,3.83
2018-12-22T17:07:55.487Z,4.93
2018-12-22T17:10:24.454Z,2.90
2018-12-22T17:12:52.076Z,2.97
2018-12-22T17:15:22.496Z,2.53
2018-12-22T17:17:49.041Z,2.17
2018-12-22T17:20:16.766Z,2.77
2018-12-22T17:22:57.565Z,2.20
2018-12-22T17:25:39.011Z,2.67
2018-12-22T17:28:06.487Z,2.80
2018-12-22T17:30:34.071Z,3.07
2018-12-22T17:33:01.564Z,2.90
2018-12-22T17:35:29.131Z,3.67
2018-12-22T17:37:56.661Z,2.67
2018-12-22T17:40:24.085Z,2.50
2018-12-22T17:42:51.521Z,2.80
2018-12-22T17:45:19.040Z,2.90
2018-12-22T17:47:46.469Z,4.00
2018-12-22T17:50:14.019Z,2.63
2018-12-22T17:52:41.580Z,3.03
2018-12-22T17:55:09.923Z,2.50
2018-12-22T17:57:37.387Z,2.47
2018-12-22T18:00:06.340Z,3.33
2018-12-22T18:02:35.150Z,3.37
2018-12-22T18:05:02.779Z,3.90
2018-12-22T18:07:30.362Z,12.73
2018-12-22T18:09:57.796Z,9.00
2018-12-22T18:12:25.350Z,5.40
2018-12-22T18:14:52.835Z,5.47
2018-12-22T18:17:20.389Z,4.83
2018-12-22T18:19:47.922Z,5.47
2018-12-22T18:22:15.449Z,3.37
2018-12-22T18:24:43.023Z,3.60
2018-12-22T18:27:10.576Z,3.60
2018-12-22T18:29:38.089Z,3.80
2018-12-22T18:32:05.702Z,4.03
2018-12-22T18:34:34.258Z,5.17
2018-12-22T18:37:01.783Z,4.30
2018-12-22T18:39:29.411Z,4.77
2018-12-22T18:41:56.908Z,4.20
2018-12-22T18:44:24.388Z,4.20
2018-12-22T18:46:51.852Z,3.47
2018-12-22T18:49:19.386Z,4.90
2018-12-22T18:51:46.862Z,4.07
2018-12-22T18:54:14.710Z,3.67
2018-12-22T18:56:42.210Z,4.00
2018-12-22T18:59:09.651Z,3.63
2018-12-22T19:01:37.180Z,5.13
2018-12-22T19:04:04.638Z,4.50
2018-12-22T19:06:32.276Z,4.33
2018-12-22T19:09:01.095Z,3.63
2018-12-22T19:11:28.727Z,3.23
2018-12-22T19:13:56.157Z,3.73
2018-12-22T19:16:23.617Z,4.20
2018-12-22T19:18:51.106Z,5.90
2018-12-22T19:21:18.579Z,3.50
2018-12-22T19:23:46.138Z,5.07
2018-12-22T19:26:13.702Z,5.60
2018-12-22T19:28:41.165Z,4.50
2018-12-22T19:31:08.621Z,4.70
2018-12-22T19:33:36.210Z,4.00
2018-12-22T19:36:03.729Z,4.10
2018-12-22T19:38:31.356Z,3.40
2018-12-22T19:40:58.834Z,3.73
2018-12-22T19:43:26.317Z,3.97
2018-12-22T19:45:54.893Z,3.37
2018-12-22T19:48:22.531Z,4.10
2018-12-22T19:50:49.990Z,4.13
2018-12-22T19:53:17.484Z,3.50
2018-12-22T19:55:44.942Z,3.10
2018-12-22T19:58:12.498Z,4.73
2018-12-22T20:00:40.032Z,3.27
2018-12-22T20:03:07.622Z,4.37
2018-12-22T20:05:35.278Z,4.90
2018-12-22T20:08:02.868Z,4.83
2018-12-22T20:10:30.438Z,4.50
2018-12-22T20:12:58.067Z,5.83
2018-12-22T20:15:25.490Z,6.10
2018-12-22T20:17:52.994Z,5.17
2018-12-22T20:20:20.763Z,4.70
2018-12-22T20:22:48.188Z,5.20
2018-12-22T20:25:15.639Z,5.53
2018-12-22T20:27:43.163Z,6.17
2018-12-22T20:30:10.766Z,6.67
2018-12-22T20:32:38.233Z,4.60
2018-12-22T20:35:05.815Z,6.13
2018-12-22T20:37:33.380Z,5.20
2018-12-22T20:40:00.798Z,5.07
2018-12-22T20:42:28.277Z,5.30
2018-12-22T20:44:55.649Z,4.50
2018-12-22T20:47:23.126Z,4.30
2018-12-22T20:49:50.610Z,3.97
2018-12-22T20:52:18.090Z,4.87
2018-12-22T20:54:45.643Z,4.83
2018-12-22T20:57:13.190Z,4.40
2018-12-22T20:59:40.736Z,3.37
2018-12-22T21:02:08.172Z,3.80
2018-12-22T21:04:35.649Z,4.70
2018-12-22T21:07:03.137Z,3.80
2018-12-22T21:09:30.591Z,3.50
2018-12-22T21:11:58.086Z,4.30
2018-12-22T21:14:25.644Z,4.60
2018-12-22T21:16:53.101Z,5.00
2018-12-22T21:19:20.667Z,5.27
2018-12-22T21:21:48.238Z,5.23
2018-12-22T21:24:16.652Z,4.90
2018-12-22T21:26:44.074Z,5.77
2018-12-22T21:29:11.647Z,4.33
2018-12-22T21:31:39.292Z,4.90
2018-12-22T21:34:06.858Z,4.80
2018-12-22T21:36:34.473Z,4.80
2018-12-22T21:39:02.679Z,5.30
2018-12-22T21:41:32.260Z,6.07
2018-12-22T21:43:59.768Z,6.77
2018-12-22T21:46:27.276Z,5.70
2018-12-22T21:48:54.908Z,6.50
2018-12-22T21:51:22.486Z,6.20
2018-12-22T21:53:50.118Z,7.13
2018-12-22T21:56:17.707Z,6.00
2018-12-22T21:58:45.316Z,6.10
2018-12-22T22:01:12.812Z,5.90
2018-12-22T22:03:40.322Z,5.67
2018-12-22T22:06:07.869Z,5.60
2018-12-22T22:08:35.593Z,4.80
2018-12-22T22:11:03.132Z,4.63
2018-12-22T22:13:30.803Z,3.90
2018-12-22T22:15:58.301Z,3.83
2018-12-22T22:18:26.019Z,4.70
2018-12-22T22:20:53.638Z,3.97
2018-12-22T22:23:21.184Z,4.33
2018-12-22T22:25:48.707Z,3.50
2018-12-22T22:28:16.252Z,4.00
2018-12-22T22:30:43.923Z,4.63
2018-12-22T22:33:11.503Z,3.27
2018-12-22T22:35:39.034Z,3.20
2018-12-22T22:38:06.742Z,3.87
2018-12-22T22:40:34.272Z,3.07
2018-12-22T22:43:01.855Z,3.57
2018-12-22T22:45:29.547Z,3.07
2018-12-22T22:47:57.253Z,3.13
2018-12-22T22:50:24.806Z,3.93
2018-12-22T22:52:52.223Z,3.20
2018-12-22T22:55:19.759Z,3.67
2018-12-22T22:57:47.252Z,3.30
2018-12-22T23:00:20.223Z,2.93
2018-12-22T23:02:48.443Z,2.23
2018-12-22T23:05:16.061Z,2.60
2018-12-22T23:07:43.725Z,3.10
2018-12-22T23:10:11.314Z,3.20
2018-12-22T23:12:38.796Z,3.10
2018-12-22T23:15:06.603Z,2.43
2018-12-22T23:17:34.099Z,3.17
2018-12-22T23:20:01.661Z,2.83
2018-12-22T23:22:29.131Z,2.30
2018-12-22T23:24:56.767Z,3.60
2018-12-22T23:27:24.395Z,3.87
2018-12-22T23:29:51.880Z,2.80
2018-12-22T23:32:19.350Z,2.47
2018-12-22T23:34:46.828Z,2.90
2018-12-22T23:37:14.328Z,2.83
2018-12-22T23:39:42.006Z,2.70
2018-12-22T23:42:09.540Z,2.23
2018-12-22T23:44:37.003Z,2.67
2018-12-22T23:47:04.479Z,2.93
2018-12-22T23:49:31.990Z,2.60
2018-12-22T23:51:59.514Z,2.00
2018-12-22T23:54:26.893Z,3.17
2018-12-22T23:56:54.351Z,2.77
2018-12-22T23:59:21.904Z,2.60
